sensor_id;sensor_type;location;lat;lon;timestamp;P1;durP1;ratioP1;P2;durP2;ratioP2
5987;SDS011;3021;51.000;6.980;2023-09-19T00:00:00;6.88;;;2.30;;
5987;SDS011;3021;51.000;6.980;2023-09-19T00:02:26;6.38;;;2.45;;
5987;SDS011;3021;51.000;6.980;2023-09-19T00:04:51;6.80;;;2.63;;
5987;SDS011;3021;51.000;6.980;2023-09-19T00:07:17;9.98;;;3.00;;
5987;SDS011;3021;51.000;6.980;2023-09-19T00:09:46;9.27;;;2.63;;
5987;SDS011;3021;51.000;6.980;2023-09-19T00:12:11;7.75;;;2.60;;
5987;SDS011;3021;51.000;6.980;2023-09-19T00:14:38;11.55;;;2.80;;
5987;SDS011;3021;51.000;6.980;2023-09-19T00:17:03;8.82;;;2.63;;
5987;SDS011;3021;51.000;6.980;2023-09-19T00:19:33;10.85;;;2.20;;
5987;SDS011;3021;51.000;6.980;2023-09-19T00:21:59;9.13;;;2.70;;
5987;SDS011;3021;51.000;6.980;2023-09-19T00:24:24;10.13;;;2.45;;
5987;SDS011;3021;51.000;6.980;2023-09-19T00:26:49;8.32;;;2.40;;
5987;SDS011;3021;51.000;6.980;2023-09-19T00:29:15;5.82;;;2.10;;
5987;SDS011;3021;51.000;6.980;2023-09-19T00:31:44;8.05;;;2.60;;
5987;SDS011;3021;51.000;6.980;2023-09-19T00:34:09;7.78;;;2.70;;
5987;SDS011;3021;51.000;6.980;2023-09-19T00:36:36;9.95;;;2.92;;
5987;SDS011;3021;51.000;6.980;2023-09-19T00:39:03;7.70;;;2.75;;
5987;SDS011;3021;51.000;6.980;2023-09-19T00:41:30;5.97;;;2.38;;
5987;SDS011;3021;51.000;6.980;2023-09-19T00:43:56;4.85;;;2.38;;
5987;SDS011;3021;51.000;6.980;2023-09-19T00:46:22;8.60;;;2.40;;
5987;SDS011;3021;51.000;6.980;2023-09-19T00:48:47;7.18;;;2.38;;
5987;SDS011;3021;51.000;6.980;2023-09-19T00:51:12;8.55;;;2.50;;
5987;SDS011;3021;51.000;6.980;2023-09-19T00:53:39;5.63;;;2.70;;
5987;SDS011;3021;51.000;6.980;2023-09-19T00:56:11;10.80;;;2.33;;
5987;SDS011;3021;51.000;6.980;2023-09-19T00:58:36;8.57;;;3.25;;
5987;SDS011;3021;51.000;6.980;2023-09-19T01:01:02;8.15;;;2.53;;
5987;SDS011;3021;51.000;6.980;2023-09-19T01:03:31;8.80;;;2.40;;
5987;SDS011;3021;51.000;6.980;2023-09-19T01:05:59;11.00;;;2.78;;
5987;SDS011;3021;51.000;6.980;2023-09-19T01:08:25;6.97;;;2.65;;
5987;SDS011;3021;51.000;6.980;2023-09-19T01:11:16;6.25;;;2.33;;
5987;SDS011;3021;51.000;6.980;2023-09-19T01:13:51;7.60;;;2.38;;
5987;SDS011;3021;51.000;6.980;2023-09-19T01:16:34;6.15;;;2.22;;
5987;SDS011;3021;51.000;6.980;2023-09-19T01:29:48;11.87;;;2.90;;
5987;SDS011;3021;51.000;6.980;2023-09-19T01:32:18;13.02;;;3.45;;
5987;SDS011;3021;51.000;6.980;2023-09-19T01:34:56;9.07;;;2.70;;
5987;SDS011;3021;51.000;6.980;2023-09-19T01:37:24;7.05;;;2.28;;
5987;SDS011;3021;51.000;6.980;2023-09-19T01:39:55;5.40;;;2.00;;
5987;SDS011;3021;51.000;6.980;2023-09-19T01:42:44;6.75;;;2.30;;
5987;SDS011;3021;51.000;6.980;2023-09-19T01:47:52;9.85;;;2.78;;
5987;SDS011;3021;51.000;6.980;2023-09-19T01:56:05;9.80;;;2.70;;
5987;SDS011;3021;51.000;6.980;2023-09-19T01:58:47;5.47;;;2.00;;
5987;SDS011;3021;51.000;6.980;2023-09-19T02:01:16;15.38;;;2.95;;
5987;SDS011;3021;51.000;6.980;2023-09-19T02:03:46;12.45;;;3.00;;
5987;SDS011;3021;51.000;6.980;2023-09-19T02:06:15;12.05;;;2.97;;
5987;SDS011;3021;51.000;6.980;2023-09-19T02:08:42;8.35;;;2.50;;
5987;SDS011;3021;51.000;6.980;2023-09-19T02:11:08;10.32;;;2.75;;
5987;SDS011;3021;51.000;6.980;2023-09-19T02:13:33;7.70;;;2.45;;
5987;SDS011;3021;51.000;6.980;2023-09-19T02:15:59;11.13;;;2.75;;
5987;SDS011;3021;51.000;6.980;2023-09-19T02:18:24;12.23;;;2.92;;
5987;SDS011;3021;51.000;6.980;2023-09-19T02:20:53;12.00;;;2.97;;
5987;SDS011;3021;51.000;6.980;2023-09-19T02:23:19;8.15;;;2.90;;
5987;SDS011;3021;51.000;6.980;2023-09-19T02:25:51;10.65;;;2.78;;
5987;SDS011;3021;51.000;6.980;2023-09-19T02:28:17;7.70;;;2.30;;
5987;SDS011;3021;51.000;6.980;2023-09-19T02:30:43;8.88;;;2.60;;
5987;SDS011;3021;51.000;6.980;2023-09-19T02:33:08;8.90;;;2.78;;
5987;SDS011;3021;51.000;6.980;2023-09-19T02:35:33;7.72;;;2.40;;
5987;SDS011;3021;51.000;6.980;2023-09-19T02:38:01;9.35;;;2.83;;
5987;SDS011;3021;51.000;6.980;2023-09-19T02:40:28;14.52;;;2.70;;
5987;SDS011;3021;51.000;6.980;2023-09-19T02:42:54;9.18;;;2.60;;
5987;SDS011;3021;51.000;6.980;2023-09-19T02:45:20;10.88;;;2.45;;
5987;SDS011;3021;51.000;6.980;2023-09-19T02:47:46;12.32;;;2.95;;
5987;SDS011;3021;51.000;6.980;2023-09-19T02:50:12;9.30;;;2.80;;
5987;SDS011;3021;51.000;6.980;2023-09-19T02:52:41;9.38;;;2.85;;
5987;SDS011;3021;51.000;6.980;2023-09-19T02:55:08;13.00;;;2.70;;
5987;SDS011;3021;51.000;6.980;2023-09-19T02:57:34;7.43;;;2.47;;
5987;SDS011;3021;51.000;6.980;2023-09-19T03:00:02;11.77;;;2.63;;
5987;SDS011;3021;51.000;6.980;2023-09-19T03:02:28;11.82;;;2.67;;
5987;SDS011;3021;51.000;6.980;2023-09-19T03:04:53;12.13;;;2.60;;
5987;SDS011;3021;51.000;6.980;2023-09-19T03:07:19;11.38;;;2.75;;
5987;SDS011;3021;51.000;6.980;2023-09-19T03:09:44;8.75;;;2.33;;
5987;SDS011;3021;51.000;6.980;2023-09-19T03:12:10;10.32;;;2.40;;
5987;SDS011;3021;51.000;6.980;2023-09-19T03:14:36;11.02;;;2.15;;
5987;SDS011;3021;51.000;6.980;2023-09-19T03:17:01;13.48;;;3.08;;
5987;SDS011;3021;51.000;6.980;2023-09-19T03:19:29;10.05;;;2.83;;
5987;SDS011;3021;51.000;6.980;2023-09-19T03:21:55;8.98;;;2.58;;
5987;SDS011;3021;51.000;6.980;2023-09-19T03:24:22;8.07;;;2.70;;
5987;SDS011;3021;51.000;6.980;2023-09-19T03:26:48;7.28;;;2.35;;
5987;SDS011;3021;51.000;6.980;2023-09-19T03:29:14;9.45;;;2.80;;
5987;SDS011;3021;51.000;6.980;2023-09-19T03:31:40;5.75;;;2.42;;
5987;SDS011;3021;51.000;6.980;2023-09-19T03:34:06;12.90;;;2.50;;
5987;SDS011;3021;51.000;6.980;2023-09-19T03:36:31;11.43;;;3.35;;
5987;SDS011;3021;51.000;6.980;2023-09-19T03:39:00;6.07;;;2.33;;
5987;SDS011;3021;51.000;6.980;2023-09-19T03:41:29;16.10;;;3.33;;
5987;SDS011;3021;51.000;6.980;2023-09-19T03:43:56;9.18;;;2.78;;
5987;SDS011;3021;51.000;6.980;2023-09-19T03:46:21;10.60;;;2.88;;
5987;SDS011;3021;51.000;6.980;2023-09-19T03:48:47;12.05;;;2.75;;
5987;SDS011;3021;51.000;6.980;2023-09-19T03:51:12;10.40;;;2.53;;
5987;SDS011;3021;51.000;6.980;2023-09-19T03:53:37;14.70;;;2.80;;
5987;SDS011;3021;51.000;6.980;2023-09-19T03:56:02;6.32;;;2.25;;
5987;SDS011;3021;51.000;6.980;2023-09-19T03:58:28;12.15;;;2.63;;
5987;SDS011;3021;51.000;6.980;2023-09-19T04:00:56;13.32;;;3.63;;
5987;SDS011;3021;51.000;6.980;2023-09-19T04:03:23;8.07;;;2.42;;
5987;SDS011;3021;51.000;6.980;2023-09-19T04:05:49;8.20;;;2.78;;
5987;SDS011;3021;51.000;6.980;2023-09-19T04:08:15;10.45;;;2.53;;
5987;SDS011;3021;51.000;6.980;2023-09-19T04:10:43;10.77;;;3.28;;
5987;SDS011;3021;51.000;6.980;2023-09-19T04:13:10;10.30;;;2.67;;
5987;SDS011;3021;51.000;6.980;2023-09-19T04:15:35;8.80;;;3.20;;
5987;SDS011;3021;51.000;6.980;2023-09-19T04:18:02;12.80;;;3.03;;
5987;SDS011;3021;51.000;6.980;2023-09-19T04:20:28;15.90;;;3.50;;
5987;SDS011;3021;51.000;6.980;2023-09-19T04:22:54;8.77;;;2.45;;
5987;SDS011;3021;51.000;6.980;2023-09-19T04:25:19;10.73;;;3.17;;
5987;SDS011;3021;51.000;6.980;2023-09-19T04:27:45;12.40;;;2.65;;
5987;SDS011;3021;51.000;6.980;2023-09-19T04:30:11;6.90;;;2.15;;
5987;SDS011;3021;51.000;6.980;2023-09-19T04:32:38;10.00;;;2.25;;
5987;SDS011;3021;51.000;6.980;2023-09-19T04:35:05;8.05;;;2.50;;
5987;SDS011;3021;51.000;6.980;2023-09-19T04:37:38;9.80;;;2.47;;
5987;SDS011;3021;51.000;6.980;2023-09-19T04:40:05;6.85;;;2.60;;
5987;SDS011;3021;51.000;6.980;2023-09-19T04:42:37;10.40;;;2.70;;
5987;SDS011;3021;51.000;6.980;2023-09-19T04:45:03;8.63;;;2.63;;
5987;SDS011;3021;51.000;6.980;2023-09-19T04:47:29;11.63;;;2.88;;
5987;SDS011;3021;51.000;6.980;2023-09-19T04:49:55;11.57;;;2.40;;
5987;SDS011;3021;51.000;6.980;2023-09-19T04:52:21;16.33;;;3.42;;
5987;SDS011;3021;51.000;6.980;2023-09-19T04:54:47;9.95;;;2.60;;
5987;SDS011;3021;51.000;6.980;2023-09-19T04:57:13;11.82;;;2.88;;
5987;SDS011;3021;51.000;6.980;2023-09-19T04:59:38;15.23;;;3.05;;
5987;SDS011;3021;51.000;6.980;2023-09-19T05:02:06;7.43;;;2.25;;
5987;SDS011;3021;51.000;6.980;2023-09-19T05:04:33;14.98;;;3.50;;
5987;SDS011;3021;51.000;6.980;2023-09-19T05:06:58;10.73;;;2.38;;
5987;SDS011;3021;51.000;6.980;2023-09-19T05:09:23;8.73;;;3.00;;
5987;SDS011;3021;51.000;6.980;2023-09-19T05:11:49;15.63;;;2.72;;
5987;SDS011;3021;51.000;6.980;2023-09-19T05:14:16;10.82;;;2.58;;
5987;SDS011;3021;51.000;6.980;2023-09-19T05:16:41;12.85;;;2.70;;
5987;SDS011;3021;51.000;6.980;2023-09-19T05:19:07;10.00;;;3.30;;
5987;SDS011;3021;51.000;6.980;2023-09-19T05:21:36;8.88;;;2.83;;
5987;SDS011;3021;51.000;6.980;2023-09-19T05:24:03;13.77;;;2.55;;
5987;SDS011;3021;51.000;6.980;2023-09-19T05:26:31;9.23;;;2.70;;
5987;SDS011;3021;51.000;6.980;2023-09-19T05:28:57;14.43;;;2.33;;
5987;SDS011;3021;51.000;6.980;2023-09-19T05:31:22;11.70;;;2.70;;
5987;SDS011;3021;51.000;6.980;2023-09-19T05:33:48;12.40;;;2.92;;
5987;SDS011;3021;51.000;6.980;2023-09-19T05:36:14;9.68;;;2.58;;
5987;SDS011;3021;51.000;6.980;2023-09-19T05:38:40;15.68;;;2.97;;
5987;SDS011;3021;51.000;6.980;2023-09-19T05:41:07;19.58;;;3.20;;
5987;SDS011;3021;51.000;6.980;2023-09-19T05:43:34;14.00;;;2.95;;
5987;SDS011;3021;51.000;6.980;2023-09-19T05:46:02;9.70;;;2.85;;
5987;SDS011;3021;51.000;6.980;2023-09-19T05:48:28;9.50;;;2.90;;
5987;SDS011;3021;51.000;6.980;2023-09-19T05:50:54;11.45;;;3.10;;
5987;SDS011;3021;51.000;6.980;2023-09-19T05:53:19;12.80;;;2.53;;
5987;SDS011;3021;51.000;6.980;2023-09-19T05:55:45;12.52;;;2.85;;
5987;SDS011;3021;51.000;6.980;2023-09-19T05:58:10;14.95;;;3.00;;
5987;SDS011;3021;51.000;6.980;2023-09-19T06:00:38;13.18;;;3.17;;
5987;SDS011;3021;51.000;6.980;2023-09-19T06:03:06;11.40;;;2.55;;
5987;SDS011;3021;51.000;6.980;2023-09-19T06:05:32;10.15;;;2.83;;
5987;SDS011;3021;51.000;6.980;2023-09-19T06:07:57;13.57;;;3.00;;
5987;SDS011;3021;51.000;6.980;2023-09-19T06:10:32;12.48;;;3.17;;
5987;SDS011;3021;51.000;6.980;2023-09-19T06:12:59;11.02;;;3.05;;
5987;SDS011;3021;51.000;6.980;2023-09-19T06:15:24;13.50;;;2.72;;
5987;SDS011;3021;51.000;6.980;2023-09-19T06:17:51;9.63;;;2.95;;
5987;SDS011;3021;51.000;6.980;2023-09-19T06:20:21;8.65;;;2.72;;
5987;SDS011;3021;51.000;6.980;2023-09-19T06:22:48;15.20;;;3.55;;
5987;SDS011;3021;51.000;6.980;2023-09-19T06:25:14;11.00;;;2.63;;
5987;SDS011;3021;51.000;6.980;2023-09-19T06:27:44;15.38;;;3.13;;
5987;SDS011;3021;51.000;6.980;2023-09-19T06:30:11;8.07;;;2.35;;
5987;SDS011;3021;51.000;6.980;2023-09-19T06:32:37;11.63;;;2.92;;
5987;SDS011;3021;51.000;6.980;2023-09-19T06:35:03;11.13;;;2.90;;
5987;SDS011;3021;51.000;6.980;2023-09-19T06:37:29;18.42;;;3.38;;
5987;SDS011;3021;51.000;6.980;2023-09-19T06:39:55;12.52;;;3.17;;
5987;SDS011;3021;51.000;6.980;2023-09-19T06:42:21;11.32;;;3.65;;
5987;SDS011;3021;51.000;6.980;2023-09-19T06:44:47;18.42;;;3.42;;
5987;SDS011;3021;51.000;6.980;2023-09-19T06:47:13;16.73;;;3.60;;
5987;SDS011;3021;51.000;6.980;2023-09-19T06:49:41;8.77;;;2.60;;
5987;SDS011;3021;51.000;6.980;2023-09-19T06:52:09;11.52;;;2.55;;
5987;SDS011;3021;51.000;6.980;2023-09-19T06:54:37;9.25;;;2.70;;
5987;SDS011;3021;51.000;6.980;2023-09-19T06:57:02;11.18;;;3.15;;
5987;SDS011;3021;51.000;6.980;2023-09-19T06:59:28;13.55;;;2.90;;
5987;SDS011;3021;51.000;6.980;2023-09-19T07:01:53;10.60;;;2.97;;
5987;SDS011;3021;51.000;6.980;2023-09-19T07:04:19;12.80;;;2.83;;
5987;SDS011;3021;51.000;6.980;2023-09-19T07:06:44;8.02;;;2.55;;
5987;SDS011;3021;51.000;6.980;2023-09-19T07:09:14;11.93;;;2.85;;
5987;SDS011;3021;51.000;6.980;2023-09-19T07:11:40;13.00;;;3.05;;
5987;SDS011;3021;51.000;6.980;2023-09-19T07:14:05;12.77;;;2.90;;
5987;SDS011;3021;51.000;6.980;2023-09-19T07:16:30;7.90;;;2.85;;
5987;SDS011;3021;51.000;6.980;2023-09-19T07:18:56;12.35;;;2.90;;
5987;SDS011;3021;51.000;6.980;2023-09-19T07:21:22;11.55;;;2.85;;
5987;SDS011;3021;51.000;6.980;2023-09-19T07:23:48;10.48;;;2.45;;
5987;SDS011;3021;51.000;6.980;2023-09-19T07:26:14;11.35;;;2.92;;
5987;SDS011;3021;51.000;6.980;2023-09-19T07:28:40;18.23;;;3.80;;
5987;SDS011;3021;51.000;6.980;2023-09-19T07:31:05;15.35;;;2.97;;
5987;SDS011;3021;51.000;6.980;2023-09-19T07:33:35;11.48;;;3.10;;
5987;SDS011;3021;51.000;6.980;2023-09-19T07:36:01;13.15;;;3.08;;
5987;SDS011;3021;51.000;6.980;2023-09-19T07:38:27;14.48;;;3.38;;
5987;SDS011;3021;51.000;6.980;2023-09-19T07:40:52;11.00;;;2.70;;
5987;SDS011;3021;51.000;6.980;2023-09-19T07:43:18;13.90;;;2.95;;
5987;SDS011;3021;51.000;6.980;2023-09-19T07:45:43;11.70;;;2.80;;
5987;SDS011;3021;51.000;6.980;2023-09-19T07:48:09;14.55;;;3.55;;
5987;SDS011;3021;51.000;6.980;2023-09-19T07:50:39;15.88;;;3.67;;
5987;SDS011;3021;51.000;6.980;2023-09-19T07:53:05;13.10;;;3.00;;
5987;SDS011;3021;51.000;6.980;2023-09-19T07:55:31;10.85;;;2.55;;
5987;SDS011;3021;51.000;6.980;2023-09-19T07:57:58;12.43;;;2.92;;
5987;SDS011;3021;51.000;6.980;2023-09-19T08:00:24;11.43;;;2.67;;
5987;SDS011;3021;51.000;6.980;2023-09-19T08:02:49;14.27;;;3.38;;
5987;SDS011;3021;51.000;6.980;2023-09-19T08:05:14;7.78;;;2.60;;
5987;SDS011;3021;51.000;6.980;2023-09-19T08:07:42;10.52;;;2.45;;
5987;SDS011;3021;51.000;6.980;2023-09-19T08:10:10;16.60;;;2.72;;
5987;SDS011;3021;51.000;6.980;2023-09-19T08:12:38;12.30;;;2.80;;
5987;SDS011;3021;51.000;6.980;2023-09-19T08:15:12;12.10;;;3.15;;
5987;SDS011;3021;51.000;6.980;2023-09-19T08:17:38;12.90;;;2.70;;
5987;SDS011;3021;51.000;6.980;2023-09-19T08:20:04;12.10;;;2.97;;
5987;SDS011;3021;51.000;6.980;2023-09-19T08:22:30;11.60;;;2.35;;
5987;SDS011;3021;51.000;6.980;2023-09-19T08:24:57;12.48;;;3.35;;
5987;SDS011;3021;51.000;6.980;2023-09-19T08:27:23;13.02;;;3.10;;
5987;SDS011;3021;51.000;6.980;2023-09-19T08:29:52;15.57;;;3.13;;
5987;SDS011;3021;51.000;6.980;2023-09-19T08:32:17;10.80;;;2.92;;
5987;SDS011;3021;51.000;6.980;2023-09-19T08:34:44;11.50;;;2.85;;
5987;SDS011;3021;51.000;6.980;2023-09-19T08:37:10;9.98;;;2.78;;
5987;SDS011;3021;51.000;6.980;2023-09-19T08:39:35;14.23;;;3.65;;
5987;SDS011;3021;51.000;6.980;2023-09-19T08:42:02;7.97;;;2.33;;
5987;SDS011;3021;51.000;6.980;2023-09-19T08:44:28;10.27;;;2.58;;
5987;SDS011;3021;51.000;6.980;2023-09-19T08:46:56;11.45;;;3.17;;
5987;SDS011;3021;51.000;6.980;2023-09-19T08:49:33;13.05;;;2.75;;
5987;SDS011;3021;51.000;6.980;2023-09-19T08:52:10;10.52;;;2.38;;
5987;SDS011;3021;51.000;6.980;2023-09-19T08:54:45;5.60;;;2.10;;
5987;SDS011;3021;51.000;6.980;2023-09-19T08:57:14;15.63;;;2.95;;
5987;SDS011;3021;51.000;6.980;2023-09-19T08:59:46;12.55;;;2.60;;
5987;SDS011;3021;51.000;6.980;2023-09-19T09:02:12;8.18;;;2.05;;
5987;SDS011;3021;51.000;6.980;2023-09-19T09:04:40;9.15;;;2.70;;
5987;SDS011;3021;51.000;6.980;2023-09-19T09:07:10;9.13;;;2.60;;
5987;SDS011;3021;51.000;6.980;2023-09-19T09:09:37;9.30;;;2.53;;
5987;SDS011;3021;51.000;6.980;2023-09-19T09:12:07;7.60;;;2.50;;
5987;SDS011;3021;51.000;6.980;2023-09-19T09:14:45;9.52;;;2.45;;
5987;SDS011;3021;51.000;6.980;2023-09-19T09:17:15;9.20;;;2.40;;
5987;SDS011;3021;51.000;6.980;2023-09-19T09:19:45;8.77;;;2.63;;
5987;SDS011;3021;51.000;6.980;2023-09-19T09:22:13;10.15;;;2.45;;
5987;SDS011;3021;51.000;6.980;2023-09-19T09:25:00;9.38;;;2.45;;
5987;SDS011;3021;51.000;6.980;2023-09-19T09:27:29;5.95;;;2.15;;
5987;SDS011;3021;51.000;6.980;2023-09-19T09:29:56;8.48;;;2.42;;
5987;SDS011;3021;51.000;6.980;2023-09-19T09:32:22;7.80;;;2.20;;
5987;SDS011;3021;51.000;6.980;2023-09-19T09:34:54;9.95;;;2.67;;
5987;SDS011;3021;51.000;6.980;2023-09-19T09:37:21;7.22;;;2.30;;
5987;SDS011;3021;51.000;6.980;2023-09-19T09:39:54;8.25;;;2.58;;
5987;SDS011;3021;51.000;6.980;2023-09-19T09:42:35;5.43;;;2.13;;
5987;SDS011;3021;51.000;6.980;2023-09-19T09:45:24;8.82;;;2.25;;
5987;SDS011;3021;51.000;6.980;2023-09-19T09:47:58;6.78;;;1.95;;
5987;SDS011;3021;51.000;6.980;2023-09-19T09:50:29;4.50;;;2.33;;
5987;SDS011;3021;51.000;6.980;2023-09-19T09:53:20;8.75;;;2.53;;
5987;SDS011;3021;51.000;6.980;2023-09-19T09:58:25;5.68;;;1.90;;
5987;SDS011;3021;51.000;6.980;2023-09-19T10:00:58;5.53;;;1.90;;
5987;SDS011;3021;51.000;6.980;2023-09-19T10:03:35;5.37;;;2.20;;
5987;SDS011;3021;51.000;6.980;2023-09-19T10:06:06;7.03;;;2.33;;
5987;SDS011;3021;51.000;6.980;2023-09-19T10:09:06;4.95;;;2.30;;
5987;SDS011;3021;51.000;6.980;2023-09-19T10:11:36;7.47;;;2.00;;
5987;SDS011;3021;51.000;6.980;2023-09-19T10:14:08;8.55;;;2.55;;
5987;SDS011;3021;51.000;6.980;2023-09-19T10:16:35;5.05;;;2.15;;
5987;SDS011;3021;51.000;6.980;2023-09-19T10:19:05;7.40;;;2.08;;
5987;SDS011;3021;51.000;6.980;2023-09-19T10:21:34;4.63;;;1.85;;
5987;SDS011;3021;51.000;6.980;2023-09-19T10:24:01;3.28;;;1.70;;
5987;SDS011;3021;51.000;6.980;2023-09-19T10:26:32;6.72;;;2.22;;
5987;SDS011;3021;51.000;6.980;2023-09-19T10:29:01;4.85;;;1.80;;
5987;SDS011;3021;51.000;6.980;2023-09-19T10:31:27;7.75;;;2.00;;
5987;SDS011;3021;51.000;6.980;2023-09-19T10:33:55;8.55;;;2.25;;
5987;SDS011;3021;51.000;6.980;2023-09-19T10:36:21;7.18;;;2.00;;
5987;SDS011;3021;51.000;6.980;2023-09-19T10:38:50;6.45;;;2.25;;
5987;SDS011;3021;51.000;6.980;2023-09-19T10:41:21;6.22;;;1.95;;
5987;SDS011;3021;51.000;6.980;2023-09-19T10:43:48;8.65;;;2.50;;
5987;SDS011;3021;51.000;6.980;2023-09-19T10:46:13;6.03;;;1.75;;
5987;SDS011;3021;51.000;6.980;2023-09-19T10:48:40;7.97;;;1.98;;
5987;SDS011;3021;51.000;6.980;2023-09-19T10:51:20;8.13;;;2.20;;
5987;SDS011;3021;51.000;6.980;2023-09-19T10:53:56;4.80;;;2.22;;
5987;SDS011;3021;51.000;6.980;2023-09-19T10:56:36;5.55;;;2.33;;
5987;SDS011;3021;51.000;6.980;2023-09-19T10:59:07;6.18;;;1.92;;
5987;SDS011;3021;51.000;6.980;2023-09-19T11:01:47;5.55;;;2.28;;
5987;SDS011;3021;51.000;6.980;2023-09-19T11:04:23;3.95;;;2.05;;
5987;SDS011;3021;51.000;6.980;2023-09-19T11:15:08;4.72;;;1.88;;
5987;SDS011;3021;51.000;6.980;2023-09-19T11:17:36;5.70;;;2.08;;
5987;SDS011;3021;51.000;6.980;2023-09-19T11:30:47;4.68;;;2.15;;
5987;SDS011;3021;51.000;6.980;2023-09-19T11:33:17;3.92;;;2.00;;
5987;SDS011;3021;51.000;6.980;2023-09-19T11:36:03;6.20;;;2.28;;
5987;SDS011;3021;51.000;6.980;2023-09-19T11:43:49;6.20;;;2.55;;
5987;SDS011;3021;51.000;6.980;2023-09-19T11:46:16;6.93;;;2.33;;
5987;SDS011;3021;51.000;6.980;2023-09-19T11:48:47;10.93;;;2.47;;
5987;SDS011;3021;51.000;6.980;2023-09-19T11:51:17;5.03;;;2.10;;
5987;SDS011;3021;51.000;6.980;2023-09-19T11:53:47;8.93;;;2.30;;
5987;SDS011;3021;51.000;6.980;2023-09-19T11:56:16;8.85;;;2.47;;
5987;SDS011;3021;51.000;6.980;2023-09-19T11:58:43;7.38;;;2.60;;
5987;SDS011;3021;51.000;6.980;2023-09-19T12:01:11;7.43;;;2.35;;
5987;SDS011;3021;51.000;6.980;2023-09-19T12:03:45;5.70;;;2.65;;
5987;SDS011;3021;51.000;6.980;2023-09-19T12:06:13;5.05;;;1.98;;
5987;SDS011;3021;51.000;6.980;2023-09-19T12:08:40;2.67;;;1.73;;
5987;SDS011;3021;51.000;6.980;2023-09-19T12:11:08;6.22;;;2.30;;
5987;SDS011;3021;51.000;6.980;2023-09-19T12:13:41;5.75;;;2.13;;
5987;SDS011;3021;51.000;6.980;2023-09-19T12:16:17;7.25;;;2.45;;
5987;SDS011;3021;51.000;6.980;2023-09-19T12:18:47;5.00;;;1.85;;
5987;SDS011;3021;51.000;6.980;2023-09-19T12:21:21;7.15;;;1.92;;
5987;SDS011;3021;51.000;6.980;2023-09-19T12:24:13;4.43;;;1.88;;
5987;SDS011;3021;51.000;6.980;2023-09-19T12:26:44;6.90;;;2.30;;
5987;SDS011;3021;51.000;6.980;2023-09-19T12:29:18;7.90;;;2.38;;
5987;SDS011;3021;51.000;6.980;2023-09-19T12:34:31;5.75;;;2.13;;
5987;SDS011;3021;51.000;6.980;2023-09-19T12:39:37;10.05;;;2.80;;
5987;SDS011;3021;51.000;6.980;2023-09-19T12:42:06;4.70;;;1.77;;
5987;SDS011;3021;51.000;6.980;2023-09-19T12:44:34;6.80;;;2.33;;
5987;SDS011;3021;51.000;6.980;2023-09-19T12:47:08;6.70;;;2.05;;
5987;SDS011;3021;51.000;6.980;2023-09-19T12:52:46;5.35;;;2.05;;
5987;SDS011;3021;51.000;6.980;2023-09-19T12:55:19;5.25;;;1.90;;
5987;SDS011;3021;51.000;6.980;2023-09-19T12:57:59;4.88;;;1.90;;
5987;SDS011;3021;51.000;6.980;2023-09-19T13:00:36;4.60;;;1.70;;
5987;SDS011;3021;51.000;6.980;2023-09-19T13:11:16;5.28;;;1.75;;
5987;SDS011;3021;51.000;6.980;2023-09-19T13:14:13;5.97;;;1.88;;
5987;SDS011;3021;51.000;6.980;2023-09-19T13:22:05;6.40;;;1.73;;
5987;SDS011;3021;51.000;6.980;2023-09-19T13:24:51;5.60;;;1.58;;
5987;SDS011;3021;51.000;6.980;2023-09-19T13:27:16;5.72;;;1.75;;
5987;SDS011;3021;51.000;6.980;2023-09-19T13:29:42;3.35;;;1.58;;
5987;SDS011;3021;51.000;6.980;2023-09-19T13:32:07;4.55;;;1.40;;
5987;SDS011;3021;51.000;6.980;2023-09-19T13:34:36;5.60;;;1.35;;
5987;SDS011;3021;51.000;6.980;2023-09-19T13:37:02;5.28;;;1.88;;
5987;SDS011;3021;51.000;6.980;2023-09-19T13:39:29;5.10;;;1.67;;
5987;SDS011;3021;51.000;6.980;2023-09-19T13:41:54;4.20;;;1.67;;
5987;SDS011;3021;51.000;6.980;2023-09-19T13:44:20;7.28;;;1.92;;
5987;SDS011;3021;51.000;6.980;2023-09-19T13:46:45;4.13;;;1.25;;
5987;SDS011;3021;51.000;6.980;2023-09-19T13:49:11;6.32;;;1.80;;
5987;SDS011;3021;51.000;6.980;2023-09-19T13:51:36;7.07;;;1.42;;
5987;SDS011;3021;51.000;6.980;2023-09-19T13:54:02;4.90;;;1.45;;
5987;SDS011;3021;51.000;6.980;2023-09-19T13:56:27;4.68;;;1.55;;
5987;SDS011;3021;51.000;6.980;2023-09-19T13:58:53;4.68;;;1.40;;
5987;SDS011;3021;51.000;6.980;2023-09-19T14:01:19;3.42;;;1.42;;
5987;SDS011;3021;51.000;6.980;2023-09-19T14:03:45;7.30;;;1.50;;
5987;SDS011;3021;51.000;6.980;2023-09-19T14:06:15;6.25;;;1.90;;
5987;SDS011;3021;51.000;6.980;2023-09-19T14:08:41;2.83;;;1.38;;
5987;SDS011;3021;51.000;6.980;2023-09-19T14:11:06;3.83;;;1.40;;
5987;SDS011;3021;51.000;6.980;2023-09-19T14:13:32;4.68;;;1.90;;
5987;SDS011;3021;51.000;6.980;2023-09-19T14:16:02;3.10;;;1.52;;
5987;SDS011;3021;51.000;6.980;2023-09-19T14:18:31;5.05;;;1.45;;
5987;SDS011;3021;51.000;6.980;2023-09-19T14:20:57;3.15;;;1.40;;
5987;SDS011;3021;51.000;6.980;2023-09-19T14:23:22;7.28;;;1.50;;
5987;SDS011;3021;51.000;6.980;2023-09-19T14:25:48;3.60;;;1.20;;
5987;SDS011;3021;51.000;6.980;2023-09-19T14:28:14;5.43;;;1.60;;
5987;SDS011;3021;51.000;6.980;2023-09-19T14:30:39;5.90;;;1.50;;
5987;SDS011;3021;51.000;6.980;2023-09-19T14:33:04;4.47;;;1.27;;
5987;SDS011;3021;51.000;6.980;2023-09-19T14:35:31;3.72;;;1.63;;
5987;SDS011;3021;51.000;6.980;2023-09-19T14:37:56;5.20;;;1.58;;
5987;SDS011;3021;51.000;6.980;2023-09-19T14:40:21;4.25;;;1.45;;
5987;SDS011;3021;51.000;6.980;2023-09-19T14:42:47;6.63;;;1.63;;
5987;SDS011;3021;51.000;6.980;2023-09-19T14:45:13;5.60;;;1.65;;
5987;SDS011;3021;51.000;6.980;2023-09-19T14:47:42;7.20;;;1.67;;
5987;SDS011;3021;51.000;6.980;2023-09-19T14:50:08;4.60;;;1.55;;
5987;SDS011;3021;51.000;6.980;2023-09-19T14:52:34;3.25;;;1.23;;
5987;SDS011;3021;51.000;6.980;2023-09-19T14:55:01;3.05;;;1.35;;
5987;SDS011;3021;51.000;6.980;2023-09-19T14:57:26;6.80;;;1.40;;
5987;SDS011;3021;51.000;6.980;2023-09-19T14:59:53;3.78;;;1.42;;
5987;SDS011;3021;51.000;6.980;2023-09-19T15:02:19;2.58;;;0.85;;
5987;SDS011;3021;51.000;6.980;2023-09-19T15:04:44;3.33;;;1.15;;
5987;SDS011;3021;51.000;6.980;2023-09-19T15:07:12;3.75;;;1.30;;
5987;SDS011;3021;51.000;6.980;2023-09-19T15:09:40;1.80;;;1.00;;
5987;SDS011;3021;51.000;6.980;2023-09-19T15:12:06;5.00;;;1.30;;
5987;SDS011;3021;51.000;6.980;2023-09-19T15:14:31;2.65;;;1.13;;
5987;SDS011;3021;51.000;6.980;2023-09-19T15:16:57;3.50;;;1.50;;
5987;SDS011;3021;51.000;6.980;2023-09-19T15:19:22;3.00;;;0.90;;
5987;SDS011;3021;51.000;6.980;2023-09-19T15:21:47;5.97;;;1.30;;
5987;SDS011;3021;51.000;6.980;2023-09-19T15:24:13;5.85;;;1.40;;
5987;SDS011;3021;51.000;6.980;2023-09-19T15:26:39;4.35;;;1.20;;
5987;SDS011;3021;51.000;6.980;2023-09-19T15:29:08;3.17;;;1.20;;
5987;SDS011;3021;51.000;6.980;2023-09-19T15:31:34;4.40;;;1.13;;
5987;SDS011;3021;51.000;6.980;2023-09-19T15:34:03;4.47;;;1.13;;
5987;SDS011;3021;51.000;6.980;2023-09-19T15:36:28;2.33;;;1.25;;
5987;SDS011;3021;51.000;6.980;2023-09-19T15:41:26;3.58;;;1.20;;
5987;SDS011;3021;51.000;6.980;2023-09-19T15:43:56;2.47;;;0.90;;
5987;SDS011;3021;51.000;6.980;2023-09-19T15:46:22;7.65;;;1.40;;
5987;SDS011;3021;51.000;6.980;2023-09-19T15:48:48;2.15;;;1.10;;
5987;SDS011;3021;51.000;6.980;2023-09-19T15:51:13;4.03;;;1.33;;
5987;SDS011;3021;51.000;6.980;2023-09-19T15:53:46;3.65;;;1.50;;
5987;SDS011;3021;51.000;6.980;2023-09-19T15:56:13;2.28;;;1.15;;
5987;SDS011;3021;51.000;6.980;2023-09-19T15:58:40;3.83;;;1.23;;
5987;SDS011;3021;51.000;6.980;2023-09-19T16:01:08;3.90;;;1.00;;
5987;SDS011;3021;51.000;6.980;2023-09-19T16:03:37;4.10;;;1.20;;
5987;SDS011;3021;51.000;6.980;2023-09-19T16:06:13;3.33;;;1.30;;
5987;SDS011;3021;51.000;6.980;2023-09-19T16:08:42;3.72;;;1.27;;
5987;SDS011;3021;51.000;6.980;2023-09-19T16:11:08;4.80;;;1.40;;
5987;SDS011;3021;51.000;6.980;2023-09-19T16:13:36;4.38;;;1.30;;
5987;SDS011;3021;51.000;6.980;2023-09-19T16:16:02;2.15;;;1.02;;
5987;SDS011;3021;51.000;6.980;2023-09-19T16:18:27;4.03;;;1.08;;
5987;SDS011;3021;51.000;6.980;2023-09-19T16:20:52;4.05;;;1.30;;
5987;SDS011;3021;51.000;6.980;2023-09-19T16:23:18;3.25;;;1.27;;
5987;SDS011;3021;51.000;6.980;2023-09-19T16:25:44;5.90;;;1.92;;